KBAM/BAM METAR and TAF weather

Enter ICAO airport designator
Station Type Date Time Source
KBAM METAR 2020/01/22 15:35 UTC NOAA

KBAM 221535Z AUTO 27006KT 10SM OVC100 03/00 A3015 RMK AO1


Station Type Date Time Source
KBAM Decoded METAR 2020/01/22 15:35 UTC NOAA

Station name not available
Jan 22, 2020 - 10:35 AM EST / 2020.01.22 1535 UTC
Wind: from the W (270 degrees) at 7 MPH (6 KT):0
Visibility: 10 mile(s):0
Sky conditions: overcast
Temperature: 37 F (3 C)
Dew Point: 32 F (0 C)
Relative Humidity: 80%
Pressure (altimeter): 30.15 in. Hg (1020 hPa)
ob: KBAM 221535Z AUTO 27006KT 10SM OVC100 03/00 A3015 RMK AO1
cycle: 15

Station Type Date Time Source
KBAM TAF 2020/01/22 12:36 UTC NOAA

TAF KBAM 221133Z 2212/2312 VRB06KT P6SM -SHRA SCT025 OVC040
FM222000 21006KT P6SM BKN050

Example: see airport list